Time;durP1;ratioP1;P1;durP2;ratioP2;P2;SDS_P1;SDS_P2;PMS_P1;PMS_P2;Temp;Humidity;BMP_temperature;BMP_pressure;BME280_temperature;BME280_humidity;BME280_pressure;Samples;Min_cycle;Max_cycle;Signal;HPM_P1;HPM_P2
2022/10/29 00:00:15;;;;;;;30.90;22.80;;;;;;;12.17;90.30;101332.83;1671569;85;21145;-90
2022/10/29 00:02:55;;;;;;;32.85;22.07;;;;;;;12.16;90.41;101327.09;1671914;85;21082;-90
2022/10/29 00:05:28;;;;;;;33.33;23.02;;;;;;;12.22;90.46;101333.86;1722077;81;21940;-91
2022/10/29 00:07:57;;;;;;;33.02;23.25;;;;;;;12.25;90.36;101330.39;1756975;80;27551;-91
2022/10/29 00:10:23;;;;;;;30.70;21.62;;;;;;;12.26;90.22;101326.92;1757236;80;21076;-91
2022/10/29 00:12:50;;;;;;;39.20;22.82;;;;;;;12.27;90.08;101318.13;1756708;81;21112;-91
2022/10/29 00:15:17;;;;;;;33.10;22.52;;;;;;;12.27;90.04;101310.21;1757515;81;21108;-93
2022/10/29 00:17:44;;;;;;;29.80;21.80;;;;;;;12.27;90.04;101303.61;1757176;81;21757;-91
2022/10/29 00:20:11;;;;;;;30.15;21.80;;;;;;;12.29;89.98;101305.86;1756982;80;21068;-90
2022/10/29 00:22:38;;;;;;;25.50;20.45;;;;;;;12.31;90.07;101301.52;1747382;81;21361;-90
2022/10/29 00:25:05;;;;;;;28.65;21.65;;;;;;;12.34;90.13;101303.36;1745304;81;21107;-92
2022/10/29 00:27:35;;;;;;;33.92;23.07;;;;;;;12.33;90.16;101294.97;1745346;81;21071;-91
2022/10/29 00:30:04;;;;;;;29.60;20.80;;;;;;;12.40;90.31;101307.05;1744654;82;21074;-92
2022/10/29 00:32:31;;;;;;;31.48;19.73;;;;;;;12.42;90.30;101301.37;1745286;82;21052;-91
2022/10/29 00:34:57;;;;;;;25.62;18.65;;;;;;;12.45;90.33;101289.58;1744996;82;21060;-91
2022/10/29 00:37:24;;;;;;;28.57;19.45;;;;;;;12.49;90.39;101290.56;1742754;81;21098;-91
2022/10/29 00:39:51;;;;;;;26.73;17.55;;;;;;;12.53;90.41;101288.89;1703318;83;21070;-91
2022/10/29 00:42:18;;;;;;;28.95;18.07;;;;;;;12.56;90.46;101286.34;1684658;85;21757;-90
2022/10/29 00:44:45;;;;;;;25.12;17.10;;;;;;;12.61;90.60;101283.36;1699642;83;21074;-90
2022/10/29 00:47:22;;;;;;;23.27;17.32;;;;;;;12.64;90.57;101279.50;1685494;83;21074;-90
2022/10/29 00:49:54;;;;;;;26.42;18.92;;;;;;;12.66;90.55;101267.22;1769439;80;21050;-91
2022/10/29 00:52:21;;;;;;;24.50;17.82;;;;;;;12.69;90.57;101272.59;1769962;80;21042;-91
2022/10/29 00:54:48;;;;;;;24.37;17.62;;;;;;;12.72;90.58;101267.80;1750259;80;21725;-91
2022/10/29 00:57:29;;;;;;;24.47;18.30;;;;;;;12.74;90.62;101266.08;1769937;80;20923;-91
2022/10/29 00:59:56;;;;;;;23.22;17.45;;;;;;;12.77;90.59;101256.92;1744596;80;21065;-90
2022/10/29 01:02:23;;;;;;;24.82;17.52;;;;;;;12.78;90.52;101258.69;1735595;82;21066;-91
2022/10/29 01:04:50;;;;;;;24.63;18.17;;;;;;;12.79;90.57;101260.05;1735601;82;21140;-90
2022/10/29 01:07:17;;;;;;;24.98;17.42;;;;;;;12.82;90.66;101250.01;1735614;82;21751;-90
2022/10/29 01:09:44;;;;;;;27.82;18.98;;;;;;;12.82;90.68;101244.29;1735050;81;21703;-91
2022/10/29 01:12:30;;;;;;;26.87;19.23;;;;;;;12.84;90.59;101245.21;1755177;81;21082;-91
2022/10/29 01:15:20;;;;;;;24.57;17.80;;;;;;;12.86;90.63;101246.58;1756778;80;21075;-91
2022/10/29 01:18:12;;;;;;;22.40;16.95;;;;;;;12.90;90.80;101246.22;1757108;81;21063;-90
2022/10/29 01:21:19;;;;;;;24.15;17.98;;;;;;;12.93;90.69;101244.95;1757032;81;22529;-90
2022/10/29 01:23:57;;;;;;;22.13;15.43;;;;;;;12.92;90.65;101238.78;1757039;81;21075;-91
2022/10/29 01:26:38;;;;;;;26.50;16.48;;;;;;;12.97;90.76;101240.20;1757068;81;21083;-91
2022/10/29 01:29:45;;;;;;;23.95;17.85;;;;;;;12.95;90.84;101230.02;1736747;81;21110;-91
2022/10/29 01:32:26;;;;;;;26.55;17.07;;;;;;;13.03;90.86;101231.11;1756746;81;21537;-90
2022/10/29 01:35:04;;;;;;;22.60;14.78;;;;;;;13.07;90.94;101235.59;1700052;81;21793;-92
2022/10/29 01:37:57;;;;;;;19.57;15.03;;;;;;;13.10;90.98;101242.70;1757474;81;21075;-92
2022/10/29 01:40:29;;;;;;;20.60;15.65;;;;;;;13.12;91.07;101240.57;1754680;80;20972;-91
2022/10/29 01:43:19;;;;;;;20.27;15.80;;;;;;;13.16;91.14;101245.50;1749595;80;20992;-91
2022/10/29 01:45:51;;;;;;;25.12;17.17;;;;;;;13.19;91.14;101242.50;1774793;80;21987;-91
2022/10/29 01:48:26;;;;;;;20.35;15.95;;;;;;;13.21;91.09;101240.78;1774537;78;22517;-91
2022/10/29 01:50:54;;;;;;;25.23;16.42;;;;;;;13.23;91.01;101236.81;1774992;80;21052;-92
2022/10/29 01:53:21;;;;;;;23.42;15.83;;;;;;;13.25;91.01;101235.13;1775012;80;21040;-92
2022/10/29 01:55:48;;;;;;;21.85;15.78;;;;;;;13.26;91.07;101227.64;1774884;80;21067;-92
2022/10/29 01:58:15;;;;;;;23.90;18.55;;;;;;;13.29;91.07;101233.41;1774824;80;22145;-92
2022/10/29 02:00:56;;;;;;;32.55;29.15;;;;;;;13.30;91.08;101232.57;1787316;80;21744;-91
2022/10/29 02:03:37;;;;;;;37.08;28.25;;;;;;;13.31;91.08;101237.93;1787747;80;20957;-92
2022/10/29 02:06:14;;;;;;;25.97;19.30;;;;;;;13.34;91.06;101230.48;1790951;80;21020;-91
2022/10/29 02:09:07;;;;;;;22.77;18.98;;;;;;;13.36;91.14;101228.77;1755309;80;21073;-90
2022/10/29 02:11:52;;;;;;;24.90;18.20;;;;;;;13.40;91.19;101237.21;1790895;80;21087;-91
2022/10/29 02:14:24;;;;;;;20.55;16.62;;;;;;;13.41;91.11;101237.25;1786684;80;22018;-90
2022/10/29 02:16:51;;;;;;;22.10;16.42;;;;;;;13.44;91.27;101235.12;1788939;80;21530;-90
2022/10/29 02:19:18;;;;;;;22.65;14.47;;;;;;;13.48;91.31;101237.41;1786506;80;21079;-90
2022/10/29 02:21:44;;;;;;;23.22;14.65;;;;;;;13.51;91.30;101240.97;1789001;80;21495;-90
2022/10/29 02:24:11;;;;;;;22.37;15.30;;;;;;;13.54;91.31;101223.86;1786373;80;21707;-90
2022/10/29 02:26:38;;;;;;;26.20;16.05;;;;;;;13.56;91.21;101218.17;1786300;80;21740;-90
2022/10/29 02:29:05;;;;;;;23.73;16.40;;;;;;;13.60;91.28;101219.13;1771108;80;21110;-91
2022/10/29 02:31:32;;;;;;;25.85;17.35;;;;;;;13.61;91.18;101209.91;1727288;81;21034;-90
2022/10/29 02:33:58;;;;;;;22.93;15.68;;;;;;;13.63;91.13;101215.64;1727169;81;21093;-91
2022/10/29 02:36:25;;;;;;;20.57;16.75;;;;;;;13.64;91.07;101220.96;1726990;81;21517;-91
2022/10/29 02:38:52;;;;;;;20.90;17.10;;;;;;;13.64;91.01;101224.94;1727339;81;22390;-90
2022/10/29 02:41:19;;;;;;;23.22;15.28;;;;;;;13.66;91.07;101215.27;1757889;80;22015;-92
2022/10/29 02:43:46;;;;;;;24.37;15.88;;;;;;;13.67;91.03;101211.78;1772583;80;21429;-92
2022/10/29 02:46:22;;;;;;;25.00;16.17;;;;;;;13.68;90.94;101213.55;1772802;80;22467;-91
2022/10/29 02:48:49;;;;;;;29.90;15.48;;;;;;;13.67;90.93;101213.10;1777006;80;21057;-91
2022/10/29 02:51:16;;;;;;;21.80;14.63;;;;;;;13.70;91.05;101205.64;1779601;80;22241;-93
2022/10/29 02:53:43;;;;;;;20.82;14.23;;;;;;;13.73;91.19;101207.92;1779474;80;21460;-91
2022/10/29 02:56:10;;;;;;;19.02;13.00;;;;;;;13.78;91.32;101207.59;1779365;80;22285;-91
2022/10/29 02:58:37;;;;;;;23.80;14.47;;;;;;;13.85;91.58;101191.81;1779411;80;21579;-91
2022/10/29 03:01:04;;;;;;;20.00;12.55;;;;;;;13.93;91.73;101190.23;1756795;80;21496;-91
2022/10/29 03:03:30;;;;;;;22.20;13.22;;;;;;;14.00;91.81;101175.80;1754543;81;21737;-90
2022/10/29 03:06:01;;;;;;;23.00;12.50;;;;;;;14.08;91.83;101179.02;1734911;81;21062;-90
2022/10/29 03:08:26;;;;;;;25.97;16.37;;;;;;;14.13;91.78;101184.86;1754211;81;21137;-89
2022/10/29 03:10:54;;;;;;;24.35;13.45;;;;;;;14.21;91.88;101188.95;1742726;81;21123;-91
2022/10/29 03:13:21;;;;;;;23.20;12.73;;;;;;;14.27;91.84;101187.73;1724263;82;21059;-91
2022/10/29 03:15:48;;;;;;;21.65;13.28;;;;;;;14.33;91.76;101185.61;1724461;82;21815;-91
2022/10/29 03:18:15;;;;;;;21.37;12.28;;;;;;;14.38;91.60;101178.64;1724359;83;20963;-91
2022/10/29 03:20:44;;;;;;;22.75;15.53;;;;;;;14.42;91.61;101194.16;1724262;83;21055;-90
2022/10/29 03:23:10;;;;;;;22.02;14.03;;;;;;;14.45;91.49;101190.20;1724090;82;21074;-91
2022/10/29 03:25:37;;;;;;;22.58;14.95;;;;;;;14.49;91.49;101184.09;1725420;82;20994;-91
2022/10/29 03:28:04;;;;;;;24.90;15.78;;;;;;;14.53;91.44;101192.13;1726870;83;22550;-91
2022/10/29 03:30:31;;;;;;;30.88;15.30;;;;;;;14.55;91.38;101190.83;1726840;83;21114;-91
2022/10/29 03:32:58;;;;;;;22.37;14.68;;;;;;;14.60;91.33;101195.78;1727051;82;22448;-91
2022/10/29 03:35:25;;;;;;;24.18;14.30;;;;;;;14.65;91.18;101193.22;1726900;83;21505;-91
2022/10/29 03:37:51;;;;;;;26.57;15.78;;;;;;;14.68;91.18;101197.25;1726987;83;21115;-90
2022/10/29 03:40:18;;;;;;;22.62;13.43;;;;;;;14.72;91.09;101199.08;1726315;81;21717;-89
2022/10/29 03:42:45;;;;;;;18.67;11.80;;;;;;;14.74;91.06;101193.36;1722790;83;21076;-90
2022/10/29 03:45:13;;;;;;;28.27;13.95;;;;;;;14.77;90.97;101188.09;1723073;82;21128;-90
2022/10/29 03:47:40;;;;;;;21.70;10.75;;;;;;;14.78;90.88;101188.11;1730112;81;21528;-90
2022/10/29 03:50:08;;;;;;;17.23;9.23;;;;;;;14.83;90.90;101185.95;1754774;81;21615;-91
2022/10/29 03:52:35;;;;;;;17.92;8.98;;;;;;;14.86;90.95;101182.03;1756339;81;21756;-90
2022/10/29 03:55:01;;;;;;;16.25;8.70;;;;;;;14.90;90.97;101189.16;1756089;81;21012;-90
2022/10/29 03:57:28;;;;;;;14.50;8.88;;;;;;;14.95;90.98;101190.13;1755443;80;21072;-90
2022/10/29 03:59:55;;;;;;;19.70;9.03;;;;;;;14.98;90.93;101186.20;1761295;80;21074;-90
2022/10/29 04:02:22;;;;;;;13.35;8.43;;;;;;;15.02;90.85;101186.69;1778666;80;20994;-90
2022/10/29 04:04:49;;;;;;;18.35;8.75;;;;;;;15.04;90.75;101182.30;1778847;80;21804;-90
2022/10/29 04:07:16;;;;;;;18.50;9.00;;;;;;;15.08;90.77;101188.54;1778864;80;21058;-90
2022/10/29 04:09:43;;;;;;;17.10;10.08;;;;;;;15.10;90.69;101198.28;1778995;80;21074;-91
2022/10/29 04:12:10;;;;;;;16.00;9.28;;;;;;;15.14;90.59;101192.14;1778976;80;21125;-90
2022/10/29 04:14:36;;;;;;;16.32;9.13;;;;;;;15.15;90.48;101203.22;1779173;80;21062;-91
2022/10/29 04:17:03;;;;;;;19.70;9.30;;;;;;;15.17;90.43;101199.27;1779100;80;21740;-91
2022/10/29 04:19:30;;;;;;;21.62;9.70;;;;;;;15.18;90.29;101192.20;1778860;80;21117;-91
2022/10/29 04:21:57;;;;;;;14.25;8.93;;;;;;;15.18;90.17;101203.69;1778983;80;21120;-91
2022/10/29 04:24:24;;;;;;;21.35;9.70;;;;;;;15.17;90.08;101197.95;1779064;80;21026;-91
2022/10/29 04:26:50;;;;;;;24.60;10.70;;;;;;;15.16;89.95;101205.02;1779083;80;21050;-92
2022/10/29 04:29:17;;;;;;;17.98;9.15;;;;;;;15.16;89.89;101190.84;1757048;80;21741;-91
2022/10/29 04:31:44;;;;;;;15.40;8.90;;;;;;;15.08;89.80;101180.14;1779041;80;21058;-91
2022/10/29 04:34:11;;;;;;;19.92;9.88;;;;;;;15.12;89.75;101185.05;1779228;80;21072;-91
2022/10/29 04:36:38;;;;;;;17.23;9.33;;;;;;;15.10;89.74;101189.00;1779148;80;21556;-91
2022/10/29 04:39:04;;;;;;;17.45;9.58;;;;;;;15.09;89.78;101184.59;1714061;82;21094;-91
2022/10/29 04:41:31;;;;;;;17.20;10.23;;;;;;;15.09;89.76;101181.02;1747752;81;21779;-92
2022/10/29 04:43:58;;;;;;;15.55;9.78;;;;;;;15.01;89.66;101171.64;1747188;80;21044;-91
2022/10/29 04:46:25;;;;;;;17.07;9.68;;;;;;;15.07;89.59;101189.39;1747231;80;21084;-92
2022/10/29 04:48:52;;;;;;;18.00;10.85;;;;;;;15.06;89.57;101188.95;1750890;81;21062;-91
2022/10/29 04:51:22;;;;;;;22.45;10.65;;;;;;;15.03;89.56;101180.50;1752645;81;21063;-91
2022/10/29 04:53:50;;;;;;;22.35;10.58;;;;;;;15.01;89.53;101186.22;1752813;81;21795;-91
2022/10/29 04:56:17;;;;;;;21.87;11.45;;;;;;;14.99;89.55;101189.73;1752463;80;21326;-91
2022/10/29 04:58:43;;;;;;;21.82;14.20;;;;;;;14.96;89.56;101190.59;1751951;80;21098;-90
2022/10/29 05:01:10;;;;;;;22.30;14.05;;;;;;;14.95;89.62;101190.13;1758673;80;21118;-90
2022/10/29 05:03:37;;;;;;;26.82;14.05;;;;;;;14.92;89.67;101190.98;1762451;81;21274;-90
2022/10/29 05:06:05;;;;;;;30.35;14.78;;;;;;;14.91;89.71;101189.19;1762845;80;21762;-91
2022/10/29 05:08:32;;;;;;;30.45;15.72;;;;;;;14.89;89.73;101185.63;1762664;80;21075;-91
2022/10/29 05:11:03;;;;;;;24.47;14.33;;;;;;;14.89;89.84;101184.75;1744523;80;21126;-91
2022/10/29 05:13:30;;;;;;;27.15;16.25;;;;;;;14.89;89.99;101202.86;1715927;83;21493;-90
2022/10/29 05:15:57;;;;;;;27.90;15.63;;;;;;;14.90;90.05;101195.78;1716115;82;21149;-92
2022/10/29 05:18:24;;;;;;;28.73;17.12;;;;;;;14.93;90.14;101198.05;1740374;81;21735;-89
2022/10/29 05:20:54;;;;;;;28.07;16.48;;;;;;;14.97;90.19;101193.69;1762565;80;20975;-90
2022/10/29 05:23:21;;;;;;;28.55;16.27;;;;;;;15.01;90.32;101199.48;1762905;80;21063;-90
2022/10/29 05:25:50;;;;;;;30.27;18.27;;;;;;;15.09;90.44;101216.81;1763047;81;21067;-91
2022/10/29 05:28:18;;;;;;;28.83;17.27;;;;;;;15.15;90.52;101218.25;1762949;81;21122;-91
2022/10/29 05:30:46;;;;;;;34.63;18.42;;;;;;;15.23;90.48;101218.34;1762932;81;21749;-90
2022/10/29 05:33:20;;;;;;;32.35;17.80;;;;;;;15.28;90.46;101220.19;1762589;81;21091;-91
2022/10/29 05:35:47;;;;;;;;;;;;;;;15.34;90.43;101225.56;1765340;81;21121;-87
2022/10/29 05:38:13;;;;;;;32.23;17.15;;;;;;;15.41;90.36;101229.20;1780162;80;20543;-86
2022/10/29 05:40:43;;;;;;;35.83;18.10;;;;;;;15.46;90.33;101229.25;1770613;80;21413;-88
2022/10/29 05:43:13;;;;;;;27.17;15.75;;;;;;;15.49;90.21;101235.93;1757541;80;22481;-90
2022/10/29 05:45:40;;;;;;;28.77;15.98;;;;;;;15.53;90.09;101247.03;1759358;80;20965;-89
2022/10/29 05:48:08;;;;;;;26.20;14.78;;;;;;;15.57;89.98;101254.59;1761690;80;21046;-89
2022/10/29 05:50:35;;;;;;;23.98;13.58;;;;;;;15.58;89.82;101239.11;1764793;81;21019;-89
2022/10/29 05:53:05;;;;;;;28.23;14.25;;;;;;;15.61;89.70;101249.78;1760664;80;21018;-90
2022/10/29 05:55:33;;;;;;;22.35;13.38;;;;;;;15.62;89.64;101247.14;1752816;81;22342;-89
2022/10/29 05:58:01;;;;;;;25.12;12.78;;;;;;;15.62;89.51;101235.66;1740693;81;20903;-88
2022/10/29 06:00:30;;;;;;;22.40;12.30;;;;;;;15.66;89.42;101238.34;1766624;80;20967;-89
2022/10/29 06:02:57;;;;;;;18.65;12.07;;;;;;;15.69;89.34;101248.09;1772751;80;21003;-89
2022/10/29 06:05:24;;;;;;;18.80;12.28;;;;;;;15.71;89.24;101252.98;1773316;80;21023;-87
2022/10/29 06:07:57;;;;;;;19.17;11.20;;;;;;;15.72;89.20;101258.31;1773080;80;21950;-88
2022/10/29 06:10:24;;;;;;;22.77;10.45;;;;;;;15.75;89.11;101262.82;1768660;80;20957;-88
2022/10/29 06:12:51;;;;;;;17.65;9.78;;;;;;;15.77;89.06;101261.08;1766756;80;20952;-89
2022/10/29 06:15:18;;;;;;;16.23;10.65;;;;;;;15.79;89.03;101257.12;1748464;80;20995;-90
2022/10/29 06:17:45;;;;;;;20.27;9.68;;;;;;;15.81;88.92;101262.89;1756383;79;21023;-90
2022/10/29 06:20:13;;;;;;;18.20;10.88;;;;;;;15.83;88.86;101265.12;1766737;81;21455;-90
2022/10/29 06:22:39;;;;;;;16.35;10.00;;;;;;;15.83;88.74;101270.43;1764969;81;21077;-90
2022/10/29 06:25:07;;;;;;;13.75;8.10;;;;;;;15.85;88.71;101279.74;1765051;81;21074;-90
2022/10/29 06:27:34;;;;;;;12.13;8.23;;;;;;;15.88;88.61;101289.08;1734626;81;21843;-90
2022/10/29 06:30:01;;;;;;;16.50;7.75;;;;;;;15.89;88.51;101278.90;1764750;81;21074;-88
2022/10/29 06:32:28;;;;;;;15.28;7.85;;;;;;;15.89;88.42;101279.78;1764876;81;21842;-90
2022/10/29 06:34:55;;;;;;;13.40;7.28;;;;;;;15.89;88.32;101278.45;1764810;81;21403;-88
2022/10/29 06:37:22;;;;;;;15.72;7.50;;;;;;;15.90;88.26;101284.68;1768744;80;21050;-89
2022/10/29 06:39:48;;;;;;;14.65;7.53;;;;;;;15.91;88.23;101290.42;1771138;80;21117;-89
2022/10/29 06:42:15;;;;;;;13.08;7.83;;;;;;;15.91;88.17;101295.73;1771297;80;21077;-89
2022/10/29 06:44:42;;;;;;;13.35;5.70;;;;;;;15.93;88.11;101296.64;1770780;80;22623;-89
2022/10/29 06:47:09;;;;;;;13.48;7.37;;;;;;;15.93;88.10;101293.58;1770208;80;21102;-89
2022/10/29 06:49:36;;;;;;;15.25;7.05;;;;;;;15.97;88.06;101293.14;1739964;82;21136;-89
2022/10/29 06:52:02;;;;;;;14.33;6.33;;;;;;;16.00;87.99;101305.58;1739629;81;21048;-89
2022/10/29 06:54:29;;;;;;;10.93;5.40;;;;;;;16.03;87.78;101302.53;1740013;82;21974;-88
2022/10/29 06:56:56;;;;;;;11.93;5.70;;;;;;;16.07;87.47;101299.48;1739936;80;22492;-88
2022/10/29 06:59:23;;;;;;;11.78;5.33;;;;;;;16.10;87.19;101291.52;1753905;79;21131;-88
2022/10/29 07:01:51;;;;;;;15.23;4.62;;;;;;;16.13;86.76;101302.19;1750015;80;22409;-90
2022/10/29 07:04:19;;;;;;;10.80;4.72;;;;;;;16.15;86.45;101296.45;1721896;81;21006;-89
2022/10/29 07:06:48;;;;;;;8.35;4.95;;;;;;;16.17;86.17;101300.02;1724386;82;21586;-94
2022/10/29 07:09:15;;;;;;;14.23;6.25;;;;;;;16.21;85.93;101300.49;1726784;82;21769;-94
2022/10/29 07:11:42;;;;;;;14.58;5.15;;;;;;;16.23;85.57;101312.47;1716007;81;21082;-94
2022/10/29 07:14:09;;;;;;;11.60;4.72;;;;;;;16.26;85.40;101311.19;1705811;82;21081;-95
2022/10/29 07:16:38;;;;;;;8.63;4.83;;;;;;;16.30;85.22;101308.56;1724120;82;22342;-92
2022/10/29 07:19:05;;;;;;;10.93;5.45;;;;;;;16.34;84.98;101310.81;1734348;82;21062;-90
2022/10/29 07:21:32;;;;;;;11.97;6.28;;;;;;;16.41;84.79;101319.75;1734665;82;21697;-94
2022/10/29 07:24:00;;;;;;;11.68;4.80;;;;;;;16.43;84.52;101313.56;1734611;82;21066;-91
2022/10/29 07:26:32;;;;;;;11.05;5.20;;;;;;;16.49;84.33;101314.95;1734295;82;21505;-87
2022/10/29 07:29:00;;;;;;;11.50;4.87;;;;;;;16.55;84.09;101320.76;1724190;82;21070;-88
2022/10/29 07:31:28;;;;;;;9.83;5.12;;;;;;;16.59;83.84;101322.59;1705822;83;21850;-90
2022/10/29 07:33:56;;;;;;;12.70;5.75;;;;;;;16.66;83.49;101323.52;1701187;82;21728;-88
2022/10/29 07:36:23;;;;;;;14.87;6.28;;;;;;;16.73;83.36;101324.48;1728967;82;21142;-94
2022/10/29 07:38:50;;;;;;;14.60;5.90;;;;;;;16.79;83.11;101324.53;1728537;82;21556;-92
2022/10/29 07:41:17;;;;;;;14.53;5.17;;;;;;;16.78;82.60;101316.09;1733079;81;21078;-96
2022/10/29 07:43:44;;;;;;;12.03;6.30;;;;;;;16.78;82.40;101301.05;1732975;80;77398;-91
2022/10/29 07:46:15;;;;;;;10.88;4.62;;;;;;;16.81;82.29;101299.73;1759322;81;22500;-91
2022/10/29 07:48:44;;;;;;;14.98;5.65;;;;;;;16.87;82.02;101295.84;1750859;81;21070;-89
2022/10/29 07:51:11;;;;;;;11.93;4.70;;;;;;;16.90;81.57;101300.28;1751182;81;21720;-90
2022/10/29 07:54:21;;;;;;;12.07;4.90;;;;;;;16.90;81.30;101290.53;1751303;81;21034;-95
2022/10/29 07:57:47;;;;;;;14.73;4.97;;;;;;;16.95;81.00;101293.66;1724261;81;21050;-95
2022/10/29 08:00:16;;;;;;;11.78;4.42;;;;;;;16.93;80.43;101304.31;1750663;81;22440;-91
2022/10/29 08:02:43;;;;;;;11.00;5.53;;;;;;;16.97;80.43;101321.14;1750668;81;21086;-90
2022/10/29 08:05:10;;;;;;;10.53;5.10;;;;;;;17.01;80.17;101309.23;1750626;81;21677;-90
2022/10/29 08:07:47;;;;;;;10.90;4.33;;;;;;;17.04;80.05;101318.58;1751076;81;21535;-89
2022/10/29 08:10:15;;;;;;;12.55;4.80;;;;;;;17.08;79.87;101316.38;1757160;81;21089;-85
2022/10/29 08:12:51;;;;;;;12.33;4.17;;;;;;;17.12;79.47;101319.05;1745066;82;21742;-86
2022/10/29 08:15:18;;;;;;;13.22;5.25;;;;;;;17.15;79.30;101325.28;1715152;83;21051;-89
2022/10/29 08:17:47;;;;;;;7.75;3.83;;;;;;;17.18;79.05;101329.30;1724480;82;21105;-90
2022/10/29 08:20:14;;;;;;;11.73;4.40;;;;;;;17.19;78.82;101329.77;1775006;80;21065;-87
2022/10/29 08:22:41;;;;;;;11.55;4.00;;;;;;;17.15;78.69;101313.75;1728126;81;21060;-88
2022/10/29 08:25:08;;;;;;;11.68;3.90;;;;;;;17.09;78.22;101318.59;1742539;82;22579;-89
2022/10/29 08:27:35;;;;;;;8.65;4.12;;;;;;;17.01;78.02;101323.86;1737637;80;21073;-88
2022/10/29 08:30:06;;;;;;;12.73;4.92;;;;;;;16.90;77.79;101325.09;1764808;79;21055;-90
2022/10/29 08:32:33;;;;;;;13.38;4.80;;;;;;;16.82;77.89;101325.48;1772433;80;21075;-89
2022/10/29 08:35:02;;;;;;;11.33;3.67;;;;;;;16.80;77.88;101316.98;1748845;81;21093;-87
2022/10/29 08:37:35;;;;;;;9.80;3.87;;;;;;;16.76;78.04;101316.10;1738928;82;21765;-89
2022/10/29 08:40:05;;;;;;;18.57;9.93;;;;;;;16.78;77.84;101330.30;1738344;81;21047;-88
2022/10/29 08:43:06;;;;;;;11.08;4.58;;;;;;;16.81;77.98;101339.61;1768462;80;21581;-88
2022/10/29 08:45:42;;;;;;;12.93;4.35;;;;;;;16.85;77.88;101343.22;1742005;81;21105;-88
2022/10/29 08:48:51;;;;;;;13.38;4.42;;;;;;;16.85;77.65;101360.50;1746398;81;21109;-88
2022/10/29 08:51:28;;;;;;;13.62;4.78;;;;;;;16.84;77.70;101368.05;1741095;82;21359;-88
2022/10/29 08:53:56;;;;;;;10.35;4.50;;;;;;;16.88;77.58;101368.06;1741338;82;21570;-88
2022/10/29 08:56:34;;;;;;;7.65;4.30;;;;;;;16.88;77.43;101362.75;1741255;82;21042;-88
2022/10/29 08:59:17;;;;;;;8.78;3.65;;;;;;;16.88;76.85;101358.77;1741381;81;21078;-88
2022/10/29 09:01:44;;;;;;;10.10;3.60;;;;;;;16.92;77.10;101358.35;1741442;81;21141;-88
2022/10/29 09:04:33;;;;;;;11.68;3.55;;;;;;;17.03;77.18;101370.42;1741483;82;21751;-88
2022/10/29 09:07:31;;;;;;;9.95;3.87;;;;;;;17.16;77.27;101368.31;1741334;81;21331;-88
2022/10/29 09:10:26;;;;;;;7.05;3.25;;;;;;;17.28;76.23;101380.80;1741736;82;21011;-88
2022/10/29 09:13:36;;;;;;;8.78;3.55;;;;;;;17.42;76.15;101360.97;1738986;82;21078;-88
2022/10/29 09:16:29;;;;;;;9.83;3.33;;;;;;;17.51;75.61;101369.42;1738848;82;21031;-88
2022/10/29 09:19:10;;;;;;;15.77;3.53;;;;;;;17.58;75.33;101380.12;1739201;81;22590;-87
2022/10/29 09:22:02;;;;;;;10.98;3.90;;;;;;;17.61;75.07;101384.59;1736532;82;21610;-88
2022/10/29 09:24:40;;;;;;;10.95;3.33;;;;;;;17.67;74.96;101388.61;1738552;82;21063;-87
2022/10/29 09:27:14;;;;;;;10.15;3.15;;;;;;;17.76;75.15;101383.80;1738203;82;21680;-87
2022/10/29 09:30:16;;;;;;;11.73;3.45;;;;;;;17.80;74.98;101384.25;1738805;82;21455;-87
2022/10/29 09:32:59;;;;;;;11.43;3.20;;;;;;;17.84;74.48;101386.05;1738915;82;21843;-87
2022/10/29 09:35:37;;;;;;;7.45;3.40;;;;;;;17.82;73.89;101382.48;1738606;82;21118;-89
2022/10/29 09:38:08;;;;;;;11.10;3.72;;;;;;;17.78;73.97;101391.34;1738771;81;21046;-87
2022/10/29 09:40:40;;;;;;;11.05;3.12;;;;;;;17.80;73.70;101381.59;1744797;80;21128;-87
2022/10/29 09:43:33;;;;;;;8.88;3.12;;;;;;;17.81;73.64;101387.34;1754778;81;21085;-88
2022/10/29 09:46:17;;;;;;;9.45;2.85;;;;;;;17.80;73.11;101397.56;1754722;81;21803;-87
2022/10/29 09:48:55;;;;;;;9.83;2.67;;;;;;;17.74;72.84;101400.20;1754725;81;21064;-87
2022/10/29 09:51:46;;;;;;;11.78;3.33;;;;;;;17.71;72.80;101397.51;1754444;81;21064;-87
2022/10/29 09:54:13;;;;;;;11.53;3.37;;;;;;;17.65;72.37;101411.67;1754768;81;21290;-88
2022/10/29 09:56:41;;;;;;;11.35;3.87;;;;;;;17.49;72.10;101415.57;1754596;81;21056;-87
2022/10/29 09:59:20;;;;;;;9.10;2.85;;;;;;;17.41;71.91;101417.27;1754578;81;21803;-88
2022/10/29 10:01:47;;;;;;;14.03;3.50;;;;;;;17.38;72.17;101417.68;1754084;81;21052;-88
2022/10/29 10:04:21;;;;;;;18.32;3.85;;;;;;;17.36;72.06;101416.78;1725235;81;21047;-88
2022/10/29 10:07:11;;;;;;;13.50;3.50;;;;;;;17.37;72.29;101426.11;1753296;81;21544;-87
2022/10/29 10:09:56;;;;;;;14.23;3.55;;;;;;;17.36;71.80;101426.09;1754569;81;21090;-87
2022/10/29 10:12:37;;;;;;;11.85;3.50;;;;;;;17.33;71.39;101434.07;1754532;81;21813;-88
2022/10/29 10:15:29;;;;;;;7.85;3.20;;;;;;;17.23;71.21;101430.00;1754753;81;21060;-88
2022/10/29 10:18:24;;;;;;;12.78;3.42;;;;;;;17.14;70.82;101432.58;1748593;81;21048;-88
2022/10/29 10:21:04;;;;;;;14.65;5.87;;;;;;;17.06;70.78;101424.95;1755015;81;21067;-88
2022/10/29 10:23:50;;;;;;;12.23;6.70;;;;;;;17.05;71.05;101430.72;1754808;81;21067;-88
2022/10/29 10:26:31;;;;;;;8.78;4.28;;;;;;;17.08;71.03;101436.53;1755024;81;22437;-88
2022/10/29 10:29:18;;;;;;;14.53;4.53;;;;;;;17.11;71.29;101433.87;1754896;81;21044;-88
2022/10/29 10:32:04;;;;;;;15.13;4.30;;;;;;;17.13;71.08;101427.24;1753931;81;21028;-88
2022/10/29 10:34:35;;;;;;;12.55;4.90;;;;;;;17.10;70.81;101425.45;1747651;81;21163;-88
2022/10/29 10:37:06;;;;;;;13.00;4.10;;;;;;;17.04;70.48;101435.60;1745458;82;21087;-89
2022/10/29 10:39:42;;;;;;;6.50;3.42;;;;;;;16.98;70.53;101438.62;1724249;83;23041;-89
2022/10/29 10:42:24;;;;;;;8.83;3.95;;;;;;;16.92;70.69;101431.48;1745355;82;21090;-89
2022/10/29 10:44:57;;;;;;;11.93;5.20;;;;;;;16.96;70.56;101433.73;1723790;83;21539;-88
2022/10/29 10:47:27;;;;;;;7.85;4.28;;;;;;;16.94;70.64;101432.39;1721636;83;21086;-88
2022/10/29 10:49:55;;;;;;;11.40;4.00;;;;;;;16.99;70.52;101436.44;1722000;83;21093;-88
2022/10/29 10:52:28;;;;;;;13.80;5.28;;;;;;;17.00;70.36;101444.41;1703477;83;22460;-88
2022/10/29 10:55:02;;;;;;;13.10;4.30;;;;;;;17.01;70.06;101453.30;1694470;84;21053;-88
2022/10/29 10:57:31;;;;;;;;;;;;;;;16.99;70.05;101464.36;1696429;84;21113;-88
2022/10/29 11:00:06;;;;;;;9.63;3.90;;;;;;;17.03;70.09;101473.70;1694382;84;20676;-88
2022/10/29 11:02:53;;;;;;;10.93;3.67;;;;;;;17.05;69.95;101469.73;1694365;84;21126;-88
2022/10/29 11:05:33;;;;;;;14.45;4.95;;;;;;;17.07;69.85;101458.67;1694432;84;21604;-87
2022/10/29 11:08:08;;;;;;;12.13;3.87;;;;;;;17.07;69.66;101450.69;1694528;84;21073;-88
2022/10/29 11:10:57;;;;;;;11.28;6.00;;;;;;;17.08;69.49;101449.38;1693636;83;21137;-87
2022/10/29 11:13:29;;;;;;;14.05;7.08;;;;;;;17.07;69.30;101454.67;1693730;82;21066;-87
2022/10/29 11:16:22;;;;;;;11.22;3.87;;;;;;;17.07;69.25;101446.25;1694270;84;21098;-87
2022/10/29 11:19:12;;;;;;;15.88;6.30;;;;;;;17.07;69.37;101444.03;1694651;84;21784;-87
2022/10/29 11:21:56;;;;;;;11.38;4.28;;;;;;;17.13;69.17;101449.85;1693794;84;21043;-87
2022/10/29 11:24:40;;;;;;;13.55;3.55;;;;;;;17.13;69.09;101456.50;1694608;84;21526;-87
2022/10/29 11:27:39;;;;;;;11.10;3.80;;;;;;;17.13;69.06;101459.16;1694590;84;21083;-87
2022/10/29 11:30:15;;;;;;;9.05;3.22;;;;;;;17.09;68.88;101456.91;1698475;84;21079;-87
2022/10/29 11:32:59;;;;;;;9.98;3.17;;;;;;;17.08;69.01;101449.38;1699990;84;22704;-87
2022/10/29 11:35:40;;;;;;;11.22;3.22;;;;;;;17.13;69.19;101456.50;1699630;83;21617;-86
2022/10/29 11:38:27;;;;;;;14.50;3.45;;;;;;;17.20;69.08;101452.58;1699763;84;21680;-86